Double Oak, Texas
Current Conditions -  °F | °C
As of 8:53 AM on Wednesday 26 Nov 2014 (Local Time) from KDFW Reporting Station
Broken Clouds Broken Clouds  
Wind Chill: 45°   Ceiling: 30000
Heat Index: 49°   Visibility: 10mi
Dew Point: 28°   Wind: 8mph
Humidity: 44%   Direction: 250°WSW
Pressure: 30.11"   Gusts: NA
Location:  33.0461°N, 96.9938°W
Report Text: KDFW 261453Z 25007KT 10SM FEW160 BKN300 09/M02 A3011 RMK AO2 SLP193 T00941022 51030
Loading
Personal Weather Stations






























Interactive Weather Map New forecast layout! Learn more

10-Day Weather Forecast

Advertisements
Track Severe Weather on mobile